Time;durP1;ratioP1;P1;durP2;ratioP2;P2;SDS_P1;SDS_P2;PMS_P1;PMS_P2;Temp;Humidity;BMP_temperature;BMP_pressure;BME280_temperature;BME280_humidity;BME280_pressure;Samples;Min_cycle;Max_cycle;Signal;HPM_P1;HPM_P2
2024/02/26 00:00:17;;;;;;;12.38;7.32;;;2.30;99.90;;;;;;7588343;19;20023;-70
2024/02/26 00:02:50;;;;;;;9.65;6.22;;;2.40;99.90;;;;;;7586354;19;20089;-71
2024/02/26 00:05:22;;;;;;;11.38;7.65;;;2.50;99.90;;;;;;7574252;19;20011;-70
2024/02/26 00:07:56;;;;;;;12.02;7.38;;;2.50;99.90;;;;;;7574225;19;20023;-69
2024/02/26 00:10:28;;;;;;;10.02;6.53;;;2.40;99.90;;;;;;7573121;19;25013;-69
2024/02/26 00:13:00;;;;;;;9.52;6.40;;;2.40;99.90;;;;;;7569678;19;20309;-70
2024/02/26 00:15:35;;;;;;;12.77;6.55;;;2.30;99.90;;;;;;7573578;19;20014;-70
2024/02/26 00:18:07;;;;;;;10.07;6.38;;;2.20;99.90;;;;;;7573815;19;20048;-69
2024/02/26 00:20:42;;;;;;;11.23;7.03;;;2.20;99.90;;;;;;7569066;19;20014;-70
2024/02/26 00:23:16;;;;;;;11.68;6.30;;;2.20;99.90;;;;;;7580619;19;20135;-69
2024/02/26 00:25:48;;;;;;;14.57;6.60;;;2.20;99.90;;;;;;7567358;19;20114;-70
2024/02/26 00:28:21;;;;;;;16.42;6.72;;;2.30;99.90;;;;;;7569110;19;20025;-69
2024/02/26 00:30:55;;;;;;;9.52;5.60;;;2.40;99.90;;;;;;7560756;19;20022;-70
2024/02/26 00:33:28;;;;;;;11.15;6.55;;;2.30;99.90;;;;;;7569645;19;20090;-70
2024/02/26 00:36:01;;;;;;;11.40;6.15;;;2.30;99.90;;;;;;7567084;19;20025;-68
2024/02/26 00:38:33;;;;;;;10.13;5.85;;;2.10;99.90;;;;;;7563707;19;20079;-70
2024/02/26 00:41:06;;;;;;;11.23;5.72;;;2.10;99.90;;;;;;7575015;19;20026;-69
2024/02/26 00:43:40;;;;;;;11.07;6.82;;;2.10;99.90;;;;;;7581588;19;20025;-69
2024/02/26 00:46:12;;;;;;;7.97;5.43;;;2.10;99.90;;;;;;7568264;19;20628;-70
2024/02/26 00:48:44;;;;;;;9.43;5.80;;;2.00;99.90;;;;;;7583913;19;20571;-68
2024/02/26 00:51:17;;;;;;;9.27;5.63;;;2.10;99.90;;;;;;7570384;19;20014;-69
2024/02/26 00:53:51;;;;;;;7.95;5.47;;;2.00;99.90;;;;;;7555941;19;20623;-70
2024/02/26 00:56:23;;;;;;;10.07;6.20;;;2.00;99.90;;;;;;7573873;19;20111;-69
2024/02/26 00:58:55;;;;;;;12.10;5.88;;;2.00;99.90;;;;;;7570692;19;20440;-70
2024/02/26 01:01:28;;;;;;;7.97;5.43;;;2.10;99.90;;;;;;7564174;19;20022;-68
2024/02/26 01:04:00;;;;;;;9.88;6.30;;;2.20;99.90;;;;;;7541663;19;20015;-70
2024/02/26 01:06:33;;;;;;;10.43;6.38;;;2.20;99.90;;;;;;7575092;19;20018;-69
2024/02/26 01:09:06;;;;;;;9.50;6.18;;;2.10;99.90;;;;;;7578297;19;20023;-70
2024/02/26 01:11:39;;;;;;;8.88;5.60;;;2.00;99.90;;;;;;7570502;19;20404;-69
2024/02/26 01:14:11;;;;;;;7.93;5.30;;;2.00;99.90;;;;;;7568136;19;20018;-69
2024/02/26 01:16:43;;;;;;;10.00;5.70;;;2.00;99.90;;;;;;7573407;19;21520;-69
2024/02/26 01:19:16;;;;;;;7.22;5.55;;;1.90;99.90;;;;;;7589191;19;20030;-69
2024/02/26 01:21:48;;;;;;;10.70;5.95;;;1.90;99.90;;;;;;7589722;19;20014;-70
2024/02/26 01:24:21;;;;;;;9.07;5.95;;;1.90;99.90;;;;;;7581592;19;20089;-68
2024/02/26 01:26:55;;;;;;;9.05;5.18;;;1.90;99.90;;;;;;7546075;19;20035;-69
2024/02/26 01:29:27;;;;;;;9.98;6.55;;;1.90;99.90;;;;;;7589653;19;20030;-70
2024/02/26 01:32:00;;;;;;;8.98;5.20;;;1.90;99.90;;;;;;7579549;19;20022;-69
2024/02/26 01:34:32;;;;;;;7.78;5.55;;;1.90;99.90;;;;;;7573223;19;20532;-68
2024/02/26 01:37:05;;;;;;;7.53;4.82;;;1.90;99.90;;;;;;7576124;19;20022;-70
2024/02/26 01:39:37;;;;;;;10.50;5.18;;;1.80;99.90;;;;;;7582290;19;20678;-71
2024/02/26 01:42:09;;;;;;;10.48;4.57;;;1.80;99.90;;;;;;7589194;19;20010;-70
2024/02/26 01:44:42;;;;;;;8.43;5.60;;;1.80;99.90;;;;;;7581946;19;20029;-69
2024/02/26 01:47:15;;;;;;;8.88;4.97;;;1.80;99.90;;;;;;7575519;19;20015;-69
2024/02/26 01:49:47;;;;;;;7.83;4.70;;;1.80;99.90;;;;;;7580530;19;20022;-69
2024/02/26 01:52:22;;;;;;;7.97;5.22;;;1.70;99.90;;;;;;7564744;19;20029;-69
2024/02/26 01:54:54;;;;;;;7.43;4.88;;;1.70;99.90;;;;;;7575872;19;20022;-68
2024/02/26 01:57:28;;;;;;;6.13;4.43;;;1.70;99.90;;;;;;7597272;19;20017;-69
2024/02/26 02:00:00;;;;;;;14.27;5.70;;;1.60;99.90;;;;;;7580703;19;20048;-68
2024/02/26 02:02:38;;;;;;;9.07;4.97;;;1.60;99.90;;;;;;7571558;19;20007;-69
2024/02/26 02:05:12;;;;;;;8.20;4.57;;;1.60;99.90;;;;;;7573644;19;20026;-68
2024/02/26 02:07:45;;;;;;;8.10;4.65;;;1.70;99.90;;;;;;7585124;19;20087;-69
2024/02/26 02:10:22;;;;;;;7.03;4.83;;;1.70;99.90;;;;;;7577383;19;20022;-67
2024/02/26 02:12:55;;;;;;;7.05;4.50;;;1.70;99.90;;;;;;7583066;19;24097;-68
2024/02/26 02:15:27;;;;;;;8.05;4.65;;;1.70;99.90;;;;;;7579292;19;20532;-69
2024/02/26 02:18:00;;;;;;;7.72;4.90;;;1.70;99.90;;;;;;7571233;19;20018;-70
2024/02/26 02:20:36;;;;;;;11.17;4.43;;;1.70;99.90;;;;;;7561769;19;20014;-69
2024/02/26 02:23:09;;;;;;;6.93;4.57;;;1.70;99.90;;;;;;7567761;19;20504;-70
2024/02/26 02:25:41;;;;;;;11.00;4.55;;;1.60;99.90;;;;;;7579307;19;20488;-69
2024/02/26 02:28:14;;;;;;;7.00;4.20;;;1.60;99.90;;;;;;7569190;19;20101;-70
2024/02/26 02:30:46;;;;;;;6.37;4.70;;;1.60;99.90;;;;;;7586700;19;20404;-70
2024/02/26 02:33:19;;;;;;;6.97;4.60;;;1.70;99.90;;;;;;7578625;19;20015;-69
2024/02/26 02:35:54;;;;;;;7.20;4.68;;;1.70;99.90;;;;;;7578916;19;20802;-70
2024/02/26 02:38:27;;;;;;;6.00;4.05;;;1.70;99.90;;;;;;7586847;19;20048;-68
2024/02/26 02:41:00;;;;;;;6.68;3.78;;;1.60;99.90;;;;;;7576982;19;20049;-68
2024/02/26 02:43:32;;;;;;;7.20;3.78;;;1.60;99.90;;;;;;7569468;19;20038;-69
2024/02/26 02:46:05;;;;;;;6.65;4.18;;;1.60;99.90;;;;;;7584254;19;20014;-69
2024/02/26 02:48:38;;;;;;;6.23;4.30;;;1.50;99.90;;;;;;7587516;19;20018;-69
2024/02/26 02:51:10;;;;;;;5.22;3.78;;;1.60;99.90;;;;;;7573900;19;20022;-69
2024/02/26 02:53:43;;;;;;;6.47;3.95;;;1.60;99.90;;;;;;7588766;19;20033;-68
2024/02/26 02:56:16;;;;;;;6.22;3.70;;;1.60;99.90;;;;;;7565141;19;20018;-69
2024/02/26 02:58:48;;;;;;;5.60;4.05;;;1.50;99.90;;;;;;7580150;19;20014;-69
2024/02/26 03:01:20;;;;;;;7.20;4.53;;;1.50;99.90;;;;;;7570001;19;20947;-69
2024/02/26 03:03:53;;;;;;;6.78;3.75;;;1.40;99.90;;;;;;7572936;19;20020;-69
2024/02/26 03:06:27;;;;;;;6.07;3.78;;;1.30;99.90;;;;;;7585263;19;20050;-69
2024/02/26 03:09:00;;;;;;;6.57;4.15;;;1.30;99.90;;;;;;7576228;19;20019;-68
2024/02/26 03:11:33;;;;;;;;;;;1.40;99.90;;;;;;7573519;19;20022;-69
2024/02/26 03:14:06;;;;;;;5.72;3.88;;;1.30;99.90;;;;;;7568139;19;19951;-68
2024/02/26 03:16:38;;;;;;;6.03;3.78;;;1.30;99.90;;;;;;7592816;19;20018;-69
2024/02/26 03:19:10;;;;;;;7.90;3.65;;;1.40;99.90;;;;;;7591928;19;20833;-68
2024/02/26 03:21:43;;;;;;;4.65;3.15;;;1.40;99.90;;;;;;7581617;19;20025;-69
2024/02/26 03:24:15;;;;;;;5.63;3.42;;;1.40;99.90;;;;;;7560241;19;20024;-68
2024/02/26 03:26:48;;;;;;;7.32;4.20;;;1.40;99.90;;;;;;7586101;19;20642;-69
2024/02/26 03:29:20;;;;;;;6.95;3.88;;;1.40;99.90;;;;;;7586056;19;20018;-70
2024/02/26 03:31:52;;;;;;;4.95;3.42;;;1.40;99.90;;;;;;7571054;19;20089;-69
2024/02/26 03:34:25;;;;;;;6.95;4.40;;;1.40;99.90;;;;;;7579888;19;20018;-69
2024/02/26 03:36:58;;;;;;;8.25;3.45;;;1.40;99.90;;;;;;7567761;19;21682;-68
2024/02/26 03:39:30;;;;;;;5.32;3.30;;;1.40;99.90;;;;;;7590368;19;20026;-68
2024/02/26 03:42:03;;;;;;;5.55;3.47;;;1.40;99.90;;;;;;7580481;19;20022;-69
2024/02/26 03:44:35;;;;;;;7.22;3.17;;;1.40;99.90;;;;;;7581687;19;20022;-69
2024/02/26 03:47:08;;;;;;;7.47;3.50;;;1.40;99.90;;;;;;7581276;19;20780;-70
2024/02/26 03:49:41;;;;;;;7.90;3.65;;;1.40;99.90;;;;;;7573013;19;20632;-68
2024/02/26 03:52:14;;;;;;;5.72;3.30;;;1.40;99.90;;;;;;7573469;19;20606;-70
2024/02/26 03:54:47;;;;;;;6.88;3.47;;;1.30;99.90;;;;;;7584366;19;20057;-70
2024/02/26 03:57:20;;;;;;;5.30;3.42;;;1.40;99.90;;;;;;7576335;19;20055;-69
2024/02/26 03:59:52;;;;;;;4.80;2.95;;;1.40;99.90;;;;;;7578951;19;20066;-69
2024/02/26 04:02:25;;;;;;;6.72;3.35;;;1.40;99.90;;;;;;7562196;19;20010;-68
2024/02/26 04:04:59;;;;;;;4.50;3.40;;;1.40;99.90;;;;;;7575100;19;20064;-68
2024/02/26 04:07:31;;;;;;;5.55;3.25;;;1.40;99.90;;;;;;7577393;19;20007;-69
2024/02/26 04:10:08;;;;;;;4.88;3.30;;;1.30;99.90;;;;;;7580680;19;20763;-68
2024/02/26 04:12:41;;;;;;;5.47;3.13;;;1.30;99.90;;;;;;7578407;19;20044;-69
2024/02/26 04:15:14;;;;;;;5.97;3.45;;;1.30;99.90;;;;;;7571472;19;20419;-69
2024/02/26 04:17:47;;;;;;;4.63;2.83;;;1.30;99.90;;;;;;7548458;19;20836;-70
2024/02/26 04:20:19;;;;;;;4.37;2.83;;;1.30;99.90;;;;;;7577110;19;20497;-71
2024/02/26 04:22:52;;;;;;;6.25;3.35;;;1.20;99.90;;;;;;7587678;19;20022;-70
2024/02/26 04:25:25;;;;;;;5.50;3.22;;;1.20;99.90;;;;;;7576213;19;20010;-70
2024/02/26 04:27:57;;;;;;;5.30;3.20;;;1.20;99.90;;;;;;7560980;19;20227;-71
2024/02/26 04:30:30;;;;;;;5.43;2.97;;;1.10;99.90;;;;;;7584498;19;20006;-71
2024/02/26 04:33:03;;;;;;;4.07;3.40;;;1.10;99.90;;;;;;7598889;19;20047;-68
2024/02/26 04:35:35;;;;;;;12.15;3.45;;;1.20;99.90;;;;;;7590638;19;20137;-69
2024/02/26 04:38:07;;;;;;;6.55;3.22;;;1.20;99.90;;;;;;7584644;19;20023;-71
2024/02/26 04:40:40;;;;;;;4.38;3.00;;;1.10;99.90;;;;;;7605046;19;20019;-70
2024/02/26 04:43:13;;;;;;;5.80;3.67;;;1.10;99.90;;;;;;7594301;19;20038;-69
2024/02/26 04:45:46;;;;;;;7.53;4.60;;;1.10;99.90;;;;;;7604548;19;20040;-70
2024/02/26 04:48:18;;;;;;;5.22;3.40;;;1.10;99.90;;;;;;7603152;19;20797;-69
2024/02/26 04:50:50;;;;;;;5.22;3.33;;;1.20;99.90;;;;;;7611581;19;20022;-70
2024/02/26 04:53:23;;;;;;;8.55;3.13;;;1.20;99.90;;;;;;7600232;19;20216;-71
2024/02/26 04:55:55;;;;;;;3.85;2.65;;;1.20;99.90;;;;;;7597680;19;20014;-70
2024/02/26 04:58:27;;;;;;;3.80;2.78;;;1.20;99.90;;;;;;7599322;19;20370;-70
2024/02/26 05:01:00;;;;;;;4.57;2.92;;;1.20;99.90;;;;;;7611311;19;20568;-70
2024/02/26 05:03:33;;;;;;;5.47;3.20;;;1.20;99.90;;;;;;7597058;19;20018;-69
2024/02/26 05:06:09;;;;;;;3.80;2.72;;;1.20;99.90;;;;;;7610194;19;20486;-71
2024/02/26 05:08:43;;;;;;;;;;;1.20;99.90;;;;;;7590750;19;20011;-69
2024/02/26 05:11:18;;;;;;;3.45;2.17;;;1.20;99.90;;;;;;7602191;19;19926;-71
2024/02/26 05:13:50;;;;;;;4.55;2.75;;;1.20;99.90;;;;;;7603307;19;20674;-71
2024/02/26 05:16:24;;;;;;;4.18;2.70;;;1.20;99.90;;;;;;7599035;19;20336;-70
2024/02/26 05:18:57;;;;;;;5.75;2.50;;;1.20;99.90;;;;;;7609976;19;20022;-71
2024/02/26 05:21:30;;;;;;;2.92;2.28;;;1.10;99.90;;;;;;7604343;19;21075;-70
2024/02/26 05:24:03;;;;;;;5.43;2.70;;;1.20;99.90;;;;;;7599429;19;20051;-69
2024/02/26 05:26:36;;;;;;;3.85;2.28;;;1.10;99.90;;;;;;7602243;19;20113;-70
2024/02/26 05:29:08;;;;;;;3.55;2.50;;;1.00;99.90;;;;;;7602831;19;20094;-68
2024/02/26 05:31:43;;;;;;;3.83;2.53;;;1.00;99.90;;;;;;7606429;19;20026;-72
2024/02/26 05:34:16;;;;;;;3.88;2.55;;;1.10;99.90;;;;;;7602793;19;20019;-70
2024/02/26 05:36:48;;;;;;;3.15;2.50;;;1.20;99.90;;;;;;7600506;19;20909;-71
2024/02/26 05:39:20;;;;;;;3.20;2.38;;;1.20;99.90;;;;;;7599464;19;20014;-72
2024/02/26 05:41:53;;;;;;;3.78;2.60;;;1.10;99.90;;;;;;7609899;19;20014;-71
2024/02/26 05:44:26;;;;;;;4.10;2.67;;;1.20;99.90;;;;;;7597614;19;20018;-70
2024/02/26 05:46:59;;;;;;;3.60;2.38;;;1.10;99.90;;;;;;7600394;19;20025;-69
2024/02/26 05:49:32;;;;;;;2.88;2.05;;;1.20;99.90;;;;;;7611335;19;20082;-70
2024/02/26 05:52:05;;;;;;;;;;;1.20;99.90;;;;;;7591038;19;20035;-70
2024/02/26 05:54:37;;;;;;;2.97;2.15;;;1.20;99.90;;;;;;7592101;19;19926;-68
2024/02/26 05:57:11;;;;;;;5.47;2.72;;;1.30;99.90;;;;;;7601943;19;20014;-71
2024/02/26 05:59:44;;;;;;;3.00;2.35;;;1.20;99.90;;;;;;7595492;19;20252;-71
2024/02/26 06:02:16;;;;;;;4.00;2.22;;;1.10;99.90;;;;;;7594200;19;20022;-69
2024/02/26 06:04:48;;;;;;;5.07;2.30;;;1.10;99.90;;;;;;7595536;19;20014;-69
2024/02/26 06:07:22;;;;;;;6.85;2.42;;;1.20;99.90;;;;;;7578073;19;21033;-70
2024/02/26 06:09:54;;;;;;;6.25;2.78;;;1.30;99.90;;;;;;7572855;19;20015;-70
2024/02/26 06:12:28;;;;;;;4.30;2.45;;;1.40;99.90;;;;;;7586433;19;20018;-69
2024/02/26 06:15:01;;;;;;;5.35;2.50;;;1.50;99.90;;;;;;7586348;19;20043;-70
2024/02/26 06:17:34;;;;;;;3.47;2.70;;;1.50;99.90;;;;;;7584667;19;20019;-69
2024/02/26 06:20:11;;;;;;;4.10;2.53;;;1.50;99.90;;;;;;7581860;19;20060;-70
2024/02/26 06:22:44;;;;;;;3.95;2.72;;;1.50;99.90;;;;;;7561766;19;20024;-69
2024/02/26 06:25:17;;;;;;;4.80;2.95;;;1.50;99.90;;;;;;7562611;19;21497;-69
2024/02/26 06:27:49;;;;;;;6.72;2.90;;;1.60;99.90;;;;;;7585541;19;20924;-71
2024/02/26 06:30:21;;;;;;;8.05;3.22;;;1.60;99.90;;;;;;7572287;19;20018;-69
2024/02/26 06:32:54;;;;;;;4.25;2.72;;;1.70;99.90;;;;;;7588771;19;20021;-69
2024/02/26 06:35:27;;;;;;;3.58;2.70;;;1.70;99.90;;;;;;7570700;19;20014;-70
2024/02/26 06:37:59;;;;;;;5.25;3.15;;;1.80;99.90;;;;;;7598828;19;20014;-69
2024/02/26 06:40:32;;;;;;;4.32;2.65;;;1.80;99.90;;;;;;7600532;19;20051;-70
2024/02/26 06:43:04;;;;;;;4.75;2.88;;;1.90;99.90;;;;;;7606080;19;20018;-70
2024/02/26 06:45:37;;;;;;;5.17;2.67;;;1.90;99.90;;;;;;7604463;19;20015;-70
2024/02/26 06:48:10;;;;;;;4.10;2.78;;;2.00;99.90;;;;;;7606335;19;20626;-70
2024/02/26 06:50:42;;;;;;;5.93;2.77;;;2.00;99.90;;;;;;7604608;19;20129;-71
2024/02/26 06:53:16;;;;;;;4.30;2.53;;;2.20;99.90;;;;;;7605664;19;20014;-69
2024/02/26 06:55:50;;;;;;;;;;;2.20;99.90;;;;;;7602484;19;20019;-71
2024/02/26 06:58:22;;;;;;;4.20;2.70;;;2.30;99.90;;;;;;7602369;19;19915;-70
2024/02/26 07:00:54;;;;;;;9.65;2.65;;;2.40;99.90;;;;;;7609632;19;20018;-70
2024/02/26 07:03:27;;;;;;;5.03;2.47;;;2.30;99.90;;;;;;7602314;19;20017;-70
2024/02/26 07:06:00;;;;;;;3.50;2.60;;;2.50;99.90;;;;;;7599784;19;20052;-70
2024/02/26 07:08:32;;;;;;;5.13;2.60;;;2.50;99.90;;;;;;7595903;19;20018;-70
2024/02/26 07:11:08;;;;;;;5.03;2.28;;;2.60;99.90;;;;;;7605353;19;20029;-69
2024/02/26 07:13:41;;;;;;;4.80;2.67;;;2.60;99.90;;;;;;7596637;19;20029;-71
2024/02/26 07:16:13;;;;;;;3.60;2.30;;;2.60;99.90;;;;;;7601144;19;20094;-70
2024/02/26 07:18:46;;;;;;;5.20;2.85;;;2.70;99.90;;;;;;7585495;19;21993;-69
2024/02/26 07:21:18;;;;;;;6.70;3.08;;;2.70;99.90;;;;;;7605167;19;20042;-68
2024/02/26 07:23:51;;;;;;;5.10;2.93;;;2.70;99.90;;;;;;7597300;19;20018;-69
2024/02/26 07:26:25;;;;;;;6.60;3.33;;;2.80;99.90;;;;;;7603702;19;20048;-70
2024/02/26 07:28:58;;;;;;;6.07;2.83;;;2.80;99.90;;;;;;7605212;19;20089;-71
2024/02/26 07:31:31;;;;;;;6.87;2.83;;;2.90;99.90;;;;;;7602279;19;20369;-70
2024/02/26 07:34:03;;;;;;;6.65;2.72;;;3.00;99.90;;;;;;7606568;19;20014;-70
2024/02/26 07:36:37;;;;;;;14.03;4.37;;;3.00;99.90;;;;;;7597763;19;20056;-68
2024/02/26 07:39:09;;;;;;;12.10;3.65;;;3.10;99.90;;;;;;7601429;19;21229;-69
2024/02/26 07:41:46;;;;;;;8.57;3.30;;;3.20;99.90;;;;;;7598793;19;20137;-69
2024/02/26 07:44:19;;;;;;;9.43;3.03;;;3.30;99.90;;;;;;7606108;19;20030;-68
2024/02/26 07:46:52;;;;;;;;;;;3.30;99.90;;;;;;7600403;19;20038;-69
2024/02/26 07:49:24;;;;;;;5.60;3.15;;;3.30;99.90;;;;;;7587784;19;19922;-69
2024/02/26 07:51:58;;;;;;;6.22;3.53;;;3.40;99.90;;;;;;7607428;19;20026;-71
2024/02/26 07:54:30;;;;;;;7.25;3.10;;;3.50;99.90;;;;;;7603473;19;20456;-70
2024/02/26 07:57:05;;;;;;;5.22;3.25;;;3.50;99.90;;;;;;7607482;19;20558;-70
2024/02/26 07:59:40;;;;;;;9.43;3.15;;;3.60;99.90;;;;;;7601056;19;20018;-71
2024/02/26 08:02:12;;;;;;;6.15;3.63;;;3.70;99.90;;;;;;7606080;19;20574;-70
2024/02/26 08:04:45;;;;;;;6.18;3.53;;;3.80;99.90;;;;;;7600946;19;21084;-70
2024/02/26 08:07:17;;;;;;;5.53;3.42;;;4.00;99.90;;;;;;7596009;19;20037;-68
2024/02/26 08:09:50;;;;;;;6.30;3.47;;;4.00;99.90;;;;;;7594598;19;20545;-69
2024/02/26 08:12:22;;;;;;;10.45;3.67;;;4.20;99.90;;;;;;7606097;19;20030;-70
2024/02/26 08:14:55;;;;;;;10.77;3.53;;;4.30;99.90;;;;;;7604131;19;20056;-69
2024/02/26 08:17:27;;;;;;;6.00;2.90;;;4.30;99.90;;;;;;7607331;19;20040;-68
2024/02/26 08:20:02;;;;;;;15.05;3.80;;;4.40;99.90;;;;;;7613310;19;20018;-68
2024/02/26 08:22:35;;;;;;;6.35;3.45;;;4.40;99.90;;;;;;7604430;19;20022;-69
2024/02/26 08:25:09;;;;;;;7.35;3.63;;;4.40;99.90;;;;;;7612324;19;20026;-70
2024/02/26 08:27:41;;;;;;;7.50;4.07;;;4.50;99.90;;;;;;7606395;19;20014;-72
2024/02/26 08:30:16;;;;;;;10.30;4.20;;;4.60;99.90;;;;;;7613037;19;20022;-69
2024/02/26 08:32:49;;;;;;;9.73;4.38;;;4.70;99.90;;;;;;7604205;19;20029;-70
2024/02/26 08:35:24;;;;;;;8.00;3.85;;;4.80;99.90;;;;;;7610090;19;20066;-71
2024/02/26 08:37:56;;;;;;;5.93;3.13;;;4.90;99.90;;;;;;7606859;19;20056;-69
2024/02/26 08:40:29;;;;;;;7.68;3.08;;;5.00;99.90;;;;;;7607943;19;20837;-69
2024/02/26 08:43:02;;;;;;;6.15;3.15;;;5.00;99.90;;;;;;7609455;19;20034;-70
2024/02/26 08:45:34;;;;;;;7.60;3.13;;;5.10;99.90;;;;;;7606074;19;20062;-69
2024/02/26 08:48:07;;;;;;;5.82;3.10;;;5.30;99.90;;;;;;7614628;19;20022;-71
2024/02/26 08:50:40;;;;;;;;;;;5.40;99.90;;;;;;7608669;19;20626;-69
2024/02/26 08:53:12;;;;;;;7.70;3.15;;;5.60;99.90;;;;;;7612618;19;20426;-70
2024/02/26 08:55:46;;;;;;;6.00;3.60;;;5.70;99.90;;;;;;7604898;19;20022;-70
2024/02/26 08:58:18;;;;;;;6.97;2.40;;;5.80;99.90;;;;;;7614992;19;20064;-72
2024/02/26 09:00:51;;;;;;;3.33;2.40;;;5.90;99.90;;;;;;7611162;19;20052;-69
2024/02/26 09:03:23;;;;;;;3.80;2.47;;;6.00;99.90;;;;;;7616078;19;20018;-72
2024/02/26 09:05:57;;;;;;;2.90;2.30;;;6.00;99.90;;;;;;7608080;19;20910;-70
2024/02/26 09:08:29;;;;;;;5.88;2.15;;;6.20;99.90;;;;;;7607022;19;20180;-72
2024/02/26 09:11:03;;;;;;;5.72;2.20;;;6.20;99.90;;;;;;7608963;19;20782;-71
2024/02/26 09:13:35;;;;;;;4.20;2.42;;;6.30;99.90;;;;;;7606311;19;20019;-70
2024/02/26 09:16:08;;;;;;;5.25;2.55;;;6.30;99.90;;;;;;7608720;19;20015;-70
2024/02/26 09:18:40;;;;;;;5.43;2.92;;;6.30;99.90;;;;;;7610014;19;20022;-70
2024/02/26 09:21:13;;;;;;;5.35;2.42;;;6.40;99.90;;;;;;7612366;19;20018;-72
2024/02/26 09:23:46;;;;;;;5.78;2.30;;;6.50;99.90;;;;;;7608636;19;20081;-71
2024/02/26 09:26:18;;;;;;;6.13;3.47;;;6.60;99.90;;;;;;7610761;19;20100;-70
2024/02/26 09:28:51;;;;;;;8.55;3.22;;;6.70;99.90;;;;;;7605122;19;20094;-70
2024/02/26 09:31:24;;;;;;;7.05;3.30;;;6.80;99.90;;;;;;7611197;19;20029;-70
2024/02/26 09:33:56;;;;;;;5.32;2.90;;;6.80;99.90;;;;;;7604553;19;20909;-70
2024/02/26 09:36:36;;;;;;;7.13;2.97;;;6.90;99.90;;;;;;7610092;19;20048;-69
2024/02/26 09:39:11;;;;;;;7.68;2.58;;;7.00;99.90;;;;;;7611366;19;20735;-70
2024/02/26 09:41:44;;;;;;;3.95;2.60;;;7.10;99.90;;;;;;7606564;19;20021;-71
2024/02/26 09:44:23;;;;;;;4.60;2.67;;;7.10;99.90;;;;;;7611319;19;20030;-72
2024/02/26 09:46:55;;;;;;;4.47;2.65;;;7.20;99.90;;;;;;7606097;19;20037;-71
2024/02/26 09:49:27;;;;;;;4.15;2.30;;;7.30;99.90;;;;;;7612291;19;20047;-70
2024/02/26 09:52:02;;;;;;;7.32;2.30;;;7.30;99.90;;;;;;7609060;19;20125;-71
2024/02/26 09:54:35;;;;;;;3.00;2.10;;;7.40;99.90;;;;;;7606468;19;20022;-69
2024/02/26 09:57:14;;;;;;;3.25;2.30;;;7.40;99.90;;;;;;7613965;19;20014;-71
2024/02/26 09:59:50;;;;;;;2.47;1.50;;;7.50;99.90;;;;;;7605592;19;20110;-70
2024/02/26 10:02:22;;;;;;;2.58;1.80;;;7.50;99.90;;;;;;7610206;19;20875;-71
2024/02/26 10:04:57;;;;;;;2.93;1.80;;;7.50;99.90;;;;;;7610185;19;20089;-69
2024/02/26 10:07:30;;;;;;;10.40;2.55;;;7.60;99.90;;;;;;7605521;19;20505;-71
2024/02/26 10:10:03;;;;;;;4.07;1.85;;;7.60;99.90;;;;;;7605122;19;20052;-71
2024/02/26 10:12:36;;;;;;;3.08;1.88;;;7.60;99.90;;;;;;7606550;19;20106;-70
2024/02/26 10:15:09;;;;;;;2.90;2.15;;;7.60;99.90;;;;;;7610636;19;21056;-72
2024/02/26 10:17:42;;;;;;;4.28;2.13;;;7.70;99.90;;;;;;7605185;19;20106;-69
2024/02/26 10:20:17;;;;;;;3.05;2.03;;;7.80;99.90;;;;;;7610045;19;20042;-70
2024/02/26 10:22:52;;;;;;;2.85;2.25;;;7.90;99.90;;;;;;7608172;19;20504;-70
2024/02/26 10:25:24;;;;;;;3.58;1.85;;;8.00;99.90;;;;;;7610668;19;20015;-70
2024/02/26 10:28:02;;;;;;;4.18;1.90;;;8.00;99.90;;;;;;7604591;19;20753;-70
2024/02/26 10:30:37;;;;;;;3.25;1.92;;;8.10;99.90;;;;;;7611249;19;20010;-71
2024/02/26 10:33:10;;;;;;;3.22;1.90;;;8.10;99.90;;;;;;7607339;19;20021;-69
2024/02/26 10:35:46;;;;;;;2.65;1.88;;;8.20;99.90;;;;;;7605023;19;20026;-70
2024/02/26 10:38:20;;;;;;;2.90;2.08;;;8.20;99.90;;;;;;7609801;19;20018;-71
2024/02/26 10:40:52;;;;;;;2.42;1.77;;;8.30;99.90;;;;;;7599078;19;20011;-72
2024/02/26 10:43:27;;;;;;;6.45;2.83;;;8.40;99.90;;;;;;7609793;19;20014;-71
2024/02/26 10:46:00;;;;;;;2.67;2.00;;;8.40;99.90;;;;;;7606707;19;21683;-71
2024/02/26 10:48:32;;;;;;;2.92;1.98;;;8.50;99.90;;;;;;7605714;19;20056;-71
2024/02/26 10:51:05;;;;;;;3.05;2.10;;;8.60;99.90;;;;;;7604802;19;20015;-69
2024/02/26 10:53:39;;;;;;;3.33;1.77;;;8.70;99.90;;;;;;7607750;19;20951;-69
2024/02/26 10:56:14;;;;;;;5.50;1.88;;;8.80;99.90;;;;;;7605910;19;20011;-71
2024/02/26 10:58:47;;;;;;;4.53;1.98;;;8.90;99.90;;;;;;7602760;19;20480;-70
2024/02/26 11:01:21;;;;;;;3.22;2.08;;;9.10;99.90;;;;;;7603603;19;20686;-70
2024/02/26 11:03:55;;;;;;;4.60;2.08;;;9.20;99.90;;;;;;7606175;19;20078;-69
2024/02/26 11:06:28;;;;;;;3.30;1.80;;;9.40;99.90;;;;;;7610388;19;20018;-70
2024/02/26 11:09:02;;;;;;;5.40;1.85;;;9.50;99.90;;;;;;7595347;19;20011;-70
2024/02/26 11:11:35;;;;;;;8.40;2.08;;;9.60;99.70;;;;;;7606116;19;20022;-71
2024/02/26 11:14:09;;;;;;;4.82;1.92;;;9.80;99.40;;;;;;7600090;19;20022;-69
2024/02/26 11:16:43;;;;;;;3.53;1.85;;;10.00;98.90;;;;;;7604232;19;20014;-69
2024/02/26 11:19:16;;;;;;;5.15;1.83;;;10.20;98.40;;;;;;7589081;19;20018;-69
2024/02/26 11:21:49;;;;;;;4.25;2.40;;;10.40;98.20;;;;;;7596858;19;20400;-70
2024/02/26 11:24:22;;;;;;;4.43;1.98;;;10.60;96.80;;;;;;7607740;19;20024;-70
2024/02/26 11:27:00;;;;;;;3.53;2.13;;;10.70;96.20;;;;;;7604007;19;20014;-69
2024/02/26 11:29:44;;;;;;;3.05;2.20;;;10.80;95.40;;;;;;7587666;19;20901;-70
2024/02/26 11:32:17;;;;;;;;;;;10.90;95.80;;;;;;7590121;19;20018;-69
2024/02/26 11:34:50;;;;;;;6.95;2.30;;;10.90;95.80;;;;;;7600997;19;19946;-70
2024/02/26 11:37:23;;;;;;;3.80;2.28;;;11.00;95.10;;;;;;7605249;19;20044;-70
2024/02/26 11:39:59;;;;;;;6.30;2.15;;;11.00;95.30;;;;;;7593881;19;20014;-69
2024/02/26 11:42:32;;;;;;;2.42;1.83;;;11.20;95.00;;;;;;7601137;19;20014;-70
2024/02/26 11:45:46;;;;;;;5.88;1.90;;;11.80;94.30;;;;;;7599525;19;20018;-70
2024/02/26 11:48:23;;;;;;;2.25;1.60;;;12.10;93.70;;;;;;7600185;19;20028;-70
2024/02/26 11:50:58;;;;;;;2.78;2.10;;;13.10;93.10;;;;;;7580248;19;20022;-70
2024/02/26 11:53:31;;;;;;;3.20;1.80;;;14.00;90.20;;;;;;7599941;19;20060;-70
2024/02/26 11:56:14;;;;;;;;;;;15.40;85.00;;;;;;7594228;19;20919;-71
2024/02/26 11:58:47;;;;;;;2.13;1.40;;;16.60;77.90;;;;;;7596397;19;20399;-69
2024/02/26 12:01:47;;;;;;;1.83;1.60;;;18.20;70.00;;;;;;7600216;19;20030;-70
2024/02/26 12:04:26;;;;;;;4.57;1.65;;;20.00;64.10;;;;;;7604940;19;20022;-70
2024/02/26 12:07:03;;;;;;;2.25;1.90;;;21.20;59.10;;;;;;7601388;19;20011;-69
2024/02/26 12:09:41;;;;;;;2.30;1.70;;;21.20;55.90;;;;;;7579783;19;20145;-70
2024/02/26 12:12:19;;;;;;;3.45;1.75;;;21.10;57.30;;;;;;7597532;19;20026;-71
2024/02/26 12:14:56;;;;;;;3.22;1.85;;;21.80;54.80;;;;;;7598093;19;20039;-69
2024/02/26 12:17:30;;;;;;;4.22;1.55;;;21.80;53.30;;;;;;7597437;19;20022;-70
2024/02/26 12:20:11;;;;;;;3.45;1.40;;;20.90;53.00;;;;;;7597105;19;20049;-70
2024/02/26 12:22:48;;;;;;;3.03;1.50;;;19.10;54.20;;;;;;7605209;19;20378;-69
2024/02/26 12:25:28;;;;;;;2.13;1.45;;;17.40;58.10;;;;;;7575996;19;20015;-70
2024/02/26 12:28:01;;;;;;;2.72;1.10;;;16.20;60.00;;;;;;7577904;19;20038;-70
2024/02/26 12:30:35;;;;;;;1.17;1.00;;;15.30;61.90;;;;;;7597446;19;21109;-70
2024/02/26 12:33:08;;;;;;;;;;;14.80;62.40;;;;;;7598029;19;20094;-69
2024/02/26 12:35:41;;;;;;;2.33;1.10;;;14.70;63.20;;;;;;7599247;19;21357;-70
2024/02/26 12:38:15;;;;;;;2.30;1.27;;;14.90;63.00;;;;;;7564227;19;20018;-70
2024/02/26 12:40:49;;;;;;;1.77;1.10;;;14.80;62.60;;;;;;7584260;19;21139;-70
2024/02/26 12:43:21;;;;;;;1.13;0.85;;;15.00;62.30;;;;;;7589408;19;20672;-71
2024/02/26 12:45:54;;;;;;;2.67;0.90;;;14.70;61.10;;;;;;7572587;19;20014;-68
2024/02/26 12:48:26;;;;;;;1.27;0.75;;;14.30;62.70;;;;;;7596584;19;20018;-71
2024/02/26 12:50:59;;;;;;;1.42;1.00;;;14.10;62.20;;;;;;7587819;19;20018;-70
2024/02/26 12:53:32;;;;;;;1.83;1.00;;;14.00;63.90;;;;;;7562066;19;20019;-68
2024/02/26 12:56:07;;;;;;;1.02;0.93;;;14.00;65.10;;;;;;7590334;19;21024;-69
2024/02/26 12:58:41;;;;;;;0.80;0.77;;;13.80;62.80;;;;;;7589610;19;20026;-69
2024/02/26 13:01:14;;;;;;;;;;;14.00;63.30;;;;;;7594163;19;20891;-70
2024/02/26 13:03:47;;;;;;;2.00;1.10;;;14.10;63.20;;;;;;7605288;19;19922;-69
2024/02/26 13:06:21;;;;;;;2.90;0.85;;;14.20;62.90;;;;;;7610969;19;20032;-70
2024/02/26 13:08:58;;;;;;;1.33;1.00;;;14.80;63.30;;;;;;7601822;19;20074;-69
2024/02/26 13:11:31;;;;;;;2.33;1.00;;;16.00;60.30;;;;;;7607338;19;20022;-69
2024/02/26 13:14:04;;;;;;;2.92;1.15;;;17.30;58.80;;;;;;7595906;19;20021;-68
2024/02/26 13:16:39;;;;;;;1.13;0.90;;;17.10;59.80;;;;;;7588368;19;20030;-69
2024/02/26 13:19:12;;;;;;;1.92;1.02;;;16.90;59.80;;;;;;7603211;19;21116;-70
2024/02/26 13:21:45;;;;;;;1.90;1.27;;;17.50;59.90;;;;;;7607753;19;20018;-69
2024/02/26 13:24:19;;;;;;;1.27;1.10;;;17.40;60.30;;;;;;7600030;19;20749;-70
2024/02/26 13:26:55;;;;;;;6.75;2.30;;;17.20;60.10;;;;;;7589978;19;20052;-70
2024/02/26 13:29:27;;;;;;;3.40;2.33;;;17.00;63.60;;;;;;7586087;19;20106;-69